sensor_id;sensor_type;location;lat;lon;timestamp;P1;durP1;ratioP1;P2;durP2;ratioP2
16352;SDS011;8286;51.274;9.542;2023-05-10T00:00:26;5.78;;;4.47;;
16352;SDS011;8286;51.274;9.542;2023-05-10T00:02:52;6.72;;;5.45;;
16352;SDS011;8286;51.274;9.542;2023-05-10T00:05:19;7.00;;;5.00;;
16352;SDS011;8286;51.274;9.542;2023-05-10T00:07:45;6.45;;;5.25;;
16352;SDS011;8286;51.274;9.542;2023-05-10T00:10:12;6.13;;;5.20;;
16352;SDS011;8286;51.274;9.542;2023-05-10T00:12:38;8.10;;;5.68;;
16352;SDS011;8286;51.274;9.542;2023-05-10T00:15:05;7.65;;;5.35;;
16352;SDS011;8286;51.274;9.542;2023-05-10T00:17:34;6.90;;;5.50;;
16352;SDS011;8286;51.274;9.542;2023-05-10T00:20:01;9.07;;;5.90;;
16352;SDS011;8286;51.274;9.542;2023-05-10T00:22:29;6.65;;;5.57;;
16352;SDS011;8286;51.274;9.542;2023-05-10T00:24:56;6.03;;;5.40;;
16352;SDS011;8286;51.274;9.542;2023-05-10T00:27:22;8.38;;;5.88;;
16352;SDS011;8286;51.274;9.542;2023-05-10T00:29:49;7.18;;;5.85;;
16352;SDS011;8286;51.274;9.542;2023-05-10T00:32:15;6.72;;;5.60;;
16352;SDS011;8286;51.274;9.542;2023-05-10T00:34:43;9.45;;;6.40;;
16352;SDS011;8286;51.274;9.542;2023-05-10T00:37:10;6.88;;;5.57;;
16352;SDS011;8286;51.274;9.542;2023-05-10T00:39:36;7.43;;;5.63;;
16352;SDS011;8286;51.274;9.542;2023-05-10T00:42:03;7.80;;;5.25;;
16352;SDS011;8286;51.274;9.542;2023-05-10T00:44:30;7.60;;;5.30;;
16352;SDS011;8286;51.274;9.542;2023-05-10T00:46:56;4.88;;;4.38;;
16352;SDS011;8286;51.274;9.542;2023-05-10T00:49:23;5.55;;;4.70;;
16352;SDS011;8286;51.274;9.542;2023-05-10T00:51:51;3.88;;;3.58;;
16352;SDS011;8286;51.274;9.542;2023-05-10T00:54:18;3.72;;;3.40;;
16352;SDS011;8286;51.274;9.542;2023-05-10T00:56:44;4.45;;;4.05;;
16352;SDS011;8286;51.274;9.542;2023-05-10T00:59:14;3.25;;;2.95;;
16352;SDS011;8286;51.274;9.542;2023-05-10T01:01:41;3.47;;;3.17;;
16352;SDS011;8286;51.274;9.542;2023-05-10T01:04:08;2.90;;;2.60;;
16352;SDS011;8286;51.274;9.542;2023-05-10T01:06:35;3.20;;;2.90;;
16352;SDS011;8286;51.274;9.542;2023-05-10T01:09:03;3.40;;;3.10;;
16352;SDS011;8286;51.274;9.542;2023-05-10T01:11:31;3.67;;;3.10;;
16352;SDS011;8286;51.274;9.542;2023-05-10T01:13:58;3.60;;;3.30;;
16352;SDS011;8286;51.274;9.542;2023-05-10T01:16:24;3.13;;;2.83;;
16352;SDS011;8286;51.274;9.542;2023-05-10T01:18:51;4.55;;;3.10;;
16352;SDS011;8286;51.274;9.542;2023-05-10T01:21:20;3.45;;;2.80;;
16352;SDS011;8286;51.274;9.542;2023-05-10T01:26:55;3.10;;;2.85;;
16352;SDS011;8286;51.274;9.542;2023-05-10T01:29:51;4.53;;;2.65;;
16352;SDS011;8286;51.274;9.542;2023-05-10T01:35:16;3.10;;;2.65;;
16352;SDS011;8286;51.274;9.542;2023-05-10T01:37:45;5.45;;;2.60;;
16352;SDS011;8286;51.274;9.542;2023-05-10T01:40:17;3.15;;;2.83;;
16352;SDS011;8286;51.274;9.542;2023-05-10T01:42:47;2.60;;;2.40;;
16352;SDS011;8286;51.274;9.542;2023-05-10T01:45:18;2.42;;;2.22;;
16352;SDS011;8286;51.274;9.542;2023-05-10T01:47:52;2.13;;;1.90;;
16352;SDS011;8286;51.274;9.542;2023-05-10T01:50:22;2.35;;;2.20;;
16352;SDS011;8286;51.274;9.542;2023-05-10T01:52:54;2.58;;;2.38;;
16352;SDS011;8286;51.274;9.542;2023-05-10T01:55:22;2.10;;;1.98;;
16352;SDS011;8286;51.274;9.542;2023-05-10T01:57:52;2.65;;;2.45;;
16352;SDS011;8286;51.274;9.542;2023-05-10T02:00:25;2.10;;;2.00;;
16352;SDS011;8286;51.274;9.542;2023-05-10T02:02:54;2.53;;;2.33;;
16352;SDS011;8286;51.274;9.542;2023-05-10T02:05:21;2.45;;;2.25;;
16352;SDS011;8286;51.274;9.542;2023-05-10T02:07:48;2.40;;;2.20;;
16352;SDS011;8286;51.274;9.542;2023-05-10T02:10:15;2.63;;;2.42;;
16352;SDS011;8286;51.274;9.542;2023-05-10T02:12:43;2.28;;;2.17;;
16352;SDS011;8286;51.274;9.542;2023-05-10T02:15:12;2.47;;;2.10;;
16352;SDS011;8286;51.274;9.542;2023-05-10T02:17:43;2.75;;;1.80;;
16352;SDS011;8286;51.274;9.542;2023-05-10T02:20:11;2.47;;;2.13;;
16352;SDS011;8286;51.274;9.542;2023-05-10T02:22:38;2.97;;;2.30;;
16352;SDS011;8286;51.274;9.542;2023-05-10T02:25:06;2.50;;;2.30;;
16352;SDS011;8286;51.274;9.542;2023-05-10T02:27:34;2.67;;;2.10;;
16352;SDS011;8286;51.274;9.542;2023-05-10T02:30:03;3.58;;;2.45;;
16352;SDS011;8286;51.274;9.542;2023-05-10T02:32:31;2.35;;;2.22;;
16352;SDS011;8286;51.274;9.542;2023-05-10T02:34:59;2.40;;;2.20;;
16352;SDS011;8286;51.274;9.542;2023-05-10T02:37:27;2.45;;;2.25;;
16352;SDS011;8286;51.274;9.542;2023-05-10T02:39:54;2.35;;;2.15;;
16352;SDS011;8286;51.274;9.542;2023-05-10T02:42:22;2.28;;;2.10;;
16352;SDS011;8286;51.274;9.542;2023-05-10T02:44:52;2.67;;;2.47;;
16352;SDS011;8286;51.274;9.542;2023-05-10T02:47:19;2.30;;;2.10;;
16352;SDS011;8286;51.274;9.542;2023-05-10T02:49:46;2.10;;;1.95;;
16352;SDS011;8286;51.274;9.542;2023-05-10T02:52:14;1.88;;;1.77;;
16352;SDS011;8286;51.274;9.542;2023-05-10T02:54:45;1.70;;;1.60;;
16352;SDS011;8286;51.274;9.542;2023-05-10T02:57:15;1.90;;;1.80;;
16352;SDS011;8286;51.274;9.542;2023-05-10T02:59:44;2.58;;;1.98;;
16352;SDS011;8286;51.274;9.542;2023-05-10T03:02:11;1.83;;;1.58;;
16352;SDS011;8286;51.274;9.542;2023-05-10T03:04:38;1.88;;;1.70;;
16352;SDS011;8286;51.274;9.542;2023-05-10T03:07:05;1.90;;;1.80;;
16352;SDS011;8286;51.274;9.542;2023-05-10T03:09:32;2.03;;;1.80;;
16352;SDS011;8286;51.274;9.542;2023-05-10T03:12:04;1.88;;;1.77;;
16352;SDS011;8286;51.274;9.542;2023-05-10T03:14:39;2.03;;;1.88;;
16352;SDS011;8286;51.274;9.542;2023-05-10T03:17:11;2.55;;;2.35;;
16352;SDS011;8286;51.274;9.542;2023-05-10T03:19:43;3.00;;;2.70;;
16352;SDS011;8286;51.274;9.542;2023-05-10T03:22:13;4.97;;;3.07;;
16352;SDS011;8286;51.274;9.542;2023-05-10T03:24:44;5.43;;;2.87;;
16352;SDS011;8286;51.274;9.542;2023-05-10T03:27:12;3.33;;;2.60;;
16352;SDS011;8286;51.274;9.542;2023-05-10T03:29:40;3.47;;;2.70;;
16352;SDS011;8286;51.274;9.542;2023-05-10T03:32:08;2.57;;;2.37;;
16352;SDS011;8286;51.274;9.542;2023-05-10T03:34:35;2.40;;;2.20;;
16352;SDS011;8286;51.274;9.542;2023-05-10T03:37:07;2.42;;;2.13;;
16352;SDS011;8286;51.274;9.542;2023-05-10T03:39:34;2.33;;;2.13;;
16352;SDS011;8286;51.274;9.542;2023-05-10T03:42:00;2.63;;;1.80;;
16352;SDS011;8286;51.274;9.542;2023-05-10T03:44:28;3.27;;;1.93;;
16352;SDS011;8286;51.274;9.542;2023-05-10T03:46:54;1.87;;;1.77;;
16352;SDS011;8286;51.274;9.542;2023-05-10T03:49:21;3.97;;;1.30;;
16352;SDS011;8286;51.274;9.542;2023-05-10T03:51:48;1.93;;;1.50;;
16352;SDS011;8286;51.274;9.542;2023-05-10T03:54:14;2.00;;;1.73;;
16352;SDS011;8286;51.274;9.542;2023-05-10T03:56:41;1.63;;;1.50;;
16352;SDS011;8286;51.274;9.542;2023-05-10T03:59:07;1.40;;;1.30;;
16352;SDS011;8286;51.274;9.542;2023-05-10T04:01:35;0.97;;;0.97;;
16352;SDS011;8286;51.274;9.542;2023-05-10T04:04:02;1.10;;;1.10;;
16352;SDS011;8286;51.274;9.542;2023-05-10T04:06:29;1.87;;;1.13;;
16352;SDS011;8286;51.274;9.542;2023-05-10T04:08:55;3.37;;;1.30;;
16352;SDS011;8286;51.274;9.542;2023-05-10T04:11:24;1.40;;;1.20;;
16352;SDS011;8286;51.274;9.542;2023-05-10T04:13:51;1.27;;;1.10;;
16352;SDS011;8286;51.274;9.542;2023-05-10T04:16:17;1.23;;;1.13;;
16352;SDS011;8286;51.274;9.542;2023-05-10T04:18:45;2.37;;;1.30;;
16352;SDS011;8286;51.274;9.542;2023-05-10T04:21:13;2.40;;;1.57;;
16352;SDS011;8286;51.274;9.542;2023-05-10T04:23:40;3.87;;;1.53;;
16352;SDS011;8286;51.274;9.542;2023-05-10T04:26:06;2.67;;;1.80;;
16352;SDS011;8286;51.274;9.542;2023-05-10T04:28:33;3.97;;;2.03;;
16352;SDS011;8286;51.274;9.542;2023-05-10T04:31:00;2.20;;;1.80;;
16352;SDS011;8286;51.274;9.542;2023-05-10T04:33:28;1.60;;;1.50;;
16352;SDS011;8286;51.274;9.542;2023-05-10T04:35:56;1.97;;;1.77;;
16352;SDS011;8286;51.274;9.542;2023-05-10T04:38:22;1.53;;;1.43;;
16352;SDS011;8286;51.274;9.542;2023-05-10T04:40:49;4.20;;;2.03;;
16352;SDS011;8286;51.274;9.542;2023-05-10T04:43:16;4.07;;;1.80;;
16352;SDS011;8286;51.274;9.542;2023-05-10T04:45:42;5.20;;;2.00;;
16352;SDS011;8286;51.274;9.542;2023-05-10T04:48:09;5.37;;;2.00;;
16352;SDS011;8286;51.274;9.542;2023-05-10T04:50:35;3.20;;;1.80;;
16352;SDS011;8286;51.274;9.542;2023-05-10T04:53:03;2.80;;;1.50;;
16352;SDS011;8286;51.274;9.542;2023-05-10T04:55:30;2.27;;;1.60;;
16352;SDS011;8286;51.274;9.542;2023-05-10T04:57:56;3.40;;;1.57;;
16352;SDS011;8286;51.274;9.542;2023-05-10T05:00:24;1.40;;;1.30;;
16352;SDS011;8286;51.274;9.542;2023-05-10T05:02:50;2.00;;;1.33;;
16352;SDS011;8286;51.274;9.542;2023-05-10T05:05:17;1.60;;;1.50;;
16352;SDS011;8286;51.274;9.542;2023-05-10T05:07:43;4.33;;;1.57;;
16352;SDS011;8286;51.274;9.542;2023-05-10T05:10:12;1.63;;;1.50;;
16352;SDS011;8286;51.274;9.542;2023-05-10T05:12:38;1.43;;;1.33;;
16352;SDS011;8286;51.274;9.542;2023-05-10T05:15:05;2.00;;;1.60;;
16352;SDS011;8286;51.274;9.542;2023-05-10T05:17:34;1.30;;;1.20;;
16352;SDS011;8286;51.274;9.542;2023-05-10T05:20:00;1.27;;;1.10;;
16352;SDS011;8286;51.274;9.542;2023-05-10T05:22:27;1.37;;;1.10;;
16352;SDS011;8286;51.274;9.542;2023-05-10T05:24:53;1.20;;;1.10;;
16352;SDS011;8286;51.274;9.542;2023-05-10T05:27:21;1.23;;;1.10;;
16352;SDS011;8286;51.274;9.542;2023-05-10T05:29:49;1.17;;;1.13;;
16352;SDS011;8286;51.274;9.542;2023-05-10T05:32:16;0.87;;;0.80;;
16352;SDS011;8286;51.274;9.542;2023-05-10T05:34:43;1.63;;;1.07;;
16352;SDS011;8286;51.274;9.542;2023-05-10T05:37:12;1.20;;;1.00;;
16352;SDS011;8286;51.274;9.542;2023-05-10T05:39:39;1.07;;;1.00;;
16352;SDS011;8286;51.274;9.542;2023-05-10T05:42:05;1.00;;;1.00;;
16352;SDS011;8286;51.274;9.542;2023-05-10T05:44:33;1.10;;;1.10;;
16352;SDS011;8286;51.274;9.542;2023-05-10T05:47:00;1.20;;;1.07;;
16352;SDS011;8286;51.274;9.542;2023-05-10T05:49:26;1.30;;;0.97;;
16352;SDS011;8286;51.274;9.542;2023-05-10T05:51:53;1.10;;;1.10;;
16352;SDS011;8286;51.274;9.542;2023-05-10T05:54:19;0.93;;;0.93;;
16352;SDS011;8286;51.274;9.542;2023-05-10T05:56:46;1.43;;;1.00;;
16352;SDS011;8286;51.274;9.542;2023-05-10T05:59:13;1.10;;;1.00;;
16352;SDS011;8286;51.274;9.542;2023-05-10T06:01:40;1.07;;;1.00;;
16352;SDS011;8286;51.274;9.542;2023-05-10T06:04:07;1.60;;;1.10;;
16352;SDS011;8286;51.274;9.542;2023-05-10T06:06:33;3.70;;;0.97;;
16352;SDS011;8286;51.274;9.542;2023-05-10T06:09:00;1.00;;;1.00;;
16352;SDS011;8286;51.274;9.542;2023-05-10T06:11:26;1.30;;;1.10;;
16352;SDS011;8286;51.274;9.542;2023-05-10T06:13:53;1.00;;;1.00;;
16352;SDS011;8286;51.274;9.542;2023-05-10T06:16:19;2.60;;;1.30;;
16352;SDS011;8286;51.274;9.542;2023-05-10T06:18:47;1.80;;;1.50;;
16352;SDS011;8286;51.274;9.542;2023-05-10T06:21:14;1.80;;;1.70;;
16352;SDS011;8286;51.274;9.542;2023-05-10T06:23:41;1.70;;;1.60;;
16352;SDS011;8286;51.274;9.542;2023-05-10T06:26:07;3.10;;;1.70;;
16352;SDS011;8286;51.274;9.542;2023-05-10T06:28:34;1.37;;;1.27;;
16352;SDS011;8286;51.274;9.542;2023-05-10T06:31:02;1.43;;;1.23;;
16352;SDS011;8286;51.274;9.542;2023-05-10T06:33:29;1.10;;;1.10;;
16352;SDS011;8286;51.274;9.542;2023-05-10T06:35:57;2.27;;;1.30;;
16352;SDS011;8286;51.274;9.542;2023-05-10T06:38:24;1.40;;;1.30;;
16352;SDS011;8286;51.274;9.542;2023-05-10T06:40:50;2.40;;;1.30;;
16352;SDS011;8286;51.274;9.542;2023-05-10T06:43:17;1.10;;;1.10;;
16352;SDS011;8286;51.274;9.542;2023-05-10T06:45:43;3.40;;;1.33;;
16352;SDS011;8286;51.274;9.542;2023-05-10T06:48:10;1.40;;;1.30;;
16352;SDS011;8286;51.274;9.542;2023-05-10T06:50:36;1.77;;;1.67;;
16352;SDS011;8286;51.274;9.542;2023-05-10T06:53:04;1.30;;;1.20;;
16352;SDS011;8286;51.274;9.542;2023-05-10T06:55:31;2.60;;;1.37;;
16352;SDS011;8286;51.274;9.542;2023-05-10T06:57:57;2.37;;;1.47;;
16352;SDS011;8286;51.274;9.542;2023-05-10T07:00:24;1.80;;;1.70;;
16352;SDS011;8286;51.274;9.542;2023-05-10T07:02:51;4.47;;;1.50;;
16352;SDS011;8286;51.274;9.542;2023-05-10T07:05:17;1.53;;;1.43;;
16352;SDS011;8286;51.274;9.542;2023-05-10T07:07:44;2.20;;;2.00;;
16352;SDS011;8286;51.274;9.542;2023-05-10T07:10:12;2.13;;;2.00;;
16352;SDS011;8286;51.274;9.542;2023-05-10T07:12:39;1.60;;;1.50;;
16352;SDS011;8286;51.274;9.542;2023-05-10T07:15:06;5.43;;;2.00;;
16352;SDS011;8286;51.274;9.542;2023-05-10T07:17:33;1.93;;;1.80;;
16352;SDS011;8286;51.274;9.542;2023-05-10T07:20:00;2.67;;;1.70;;
16352;SDS011;8286;51.274;9.542;2023-05-10T07:22:27;4.10;;;1.70;;
16352;SDS011;8286;51.274;9.542;2023-05-10T07:24:54;3.53;;;2.05;;
16352;SDS011;8286;51.274;9.542;2023-05-10T07:27:22;2.27;;;2.17;;
16352;SDS011;8286;51.274;9.542;2023-05-10T07:29:48;0.98;;;0.98;;
16352;SDS011;8286;51.274;9.542;2023-05-10T07:32:15;0.65;;;0.65;;
16352;SDS011;8286;51.274;9.542;2023-05-10T07:34:42;0.60;;;0.60;;
16352;SDS011;8286;51.274;9.542;2023-05-10T07:37:08;1.90;;;0.60;;
16352;SDS011;8286;51.274;9.542;2023-05-10T07:39:35;0.50;;;0.50;;
16352;SDS011;8286;51.274;9.542;2023-05-10T07:42:01;0.50;;;0.50;;
16352;SDS011;8286;51.274;9.542;2023-05-10T07:44:29;0.60;;;0.60;;
16352;SDS011;8286;51.274;9.542;2023-05-10T07:46:56;1.95;;;0.70;;
16352;SDS011;8286;51.274;9.542;2023-05-10T07:49:22;1.65;;;0.70;;
16352;SDS011;8286;51.274;9.542;2023-05-10T07:51:50;0.65;;;0.65;;
16352;SDS011;8286;51.274;9.542;2023-05-10T07:54:16;1.55;;;0.60;;
16352;SDS011;8286;51.274;9.542;2023-05-10T07:56:43;1.75;;;0.60;;
16352;SDS011;8286;51.274;9.542;2023-05-10T07:59:14;0.63;;;0.63;;
16352;SDS011;8286;51.274;9.542;2023-05-10T08:01:42;0.68;;;0.60;;
16352;SDS011;8286;51.274;9.542;2023-05-10T08:04:09;1.75;;;0.70;;
16352;SDS011;8286;51.274;9.542;2023-05-10T08:06:36;2.78;;;0.90;;
16352;SDS011;8286;51.274;9.542;2023-05-10T08:09:03;0.73;;;0.73;;
16352;SDS011;8286;51.274;9.542;2023-05-10T08:11:29;0.80;;;0.80;;
16352;SDS011;8286;51.274;9.542;2023-05-10T08:13:56;2.10;;;0.68;;
16352;SDS011;8286;51.274;9.542;2023-05-10T08:16:22;0.70;;;0.70;;
16352;SDS011;8286;51.274;9.542;2023-05-10T08:18:50;1.55;;;0.82;;
16352;SDS011;8286;51.274;9.542;2023-05-10T08:21:17;2.75;;;0.90;;
16352;SDS011;8286;51.274;9.542;2023-05-10T08:23:43;0.80;;;0.80;;
16352;SDS011;8286;51.274;9.542;2023-05-10T08:26:10;0.60;;;0.60;;
16352;SDS011;8286;51.274;9.542;2023-05-10T08:28:36;0.90;;;0.90;;
16352;SDS011;8286;51.274;9.542;2023-05-10T08:31:03;0.85;;;0.85;;
16352;SDS011;8286;51.274;9.542;2023-05-10T08:33:30;0.80;;;0.80;;
16352;SDS011;8286;51.274;9.542;2023-05-10T08:35:58;2.08;;;0.90;;
16352;SDS011;8286;51.274;9.542;2023-05-10T08:38:24;0.90;;;0.90;;
16352;SDS011;8286;51.274;9.542;2023-05-10T08:40:51;1.98;;;0.90;;
16352;SDS011;8286;51.274;9.542;2023-05-10T08:43:21;1.77;;;0.90;;
16352;SDS011;8286;51.274;9.542;2023-05-10T08:45:48;1.45;;;0.90;;
16352;SDS011;8286;51.274;9.542;2023-05-10T08:48:16;1.30;;;1.20;;
16352;SDS011;8286;51.274;9.542;2023-05-10T08:50:44;1.65;;;0.95;;
16352;SDS011;8286;51.274;9.542;2023-05-10T08:53:13;3.40;;;0.88;;
16352;SDS011;8286;51.274;9.542;2023-05-10T08:55:39;1.30;;;1.20;;
16352;SDS011;8286;51.274;9.542;2023-05-10T08:58:08;1.58;;;1.10;;
16352;SDS011;8286;51.274;9.542;2023-05-10T09:00:35;1.00;;;0.82;;
16352;SDS011;8286;51.274;9.542;2023-05-10T09:03:02;1.40;;;1.00;;
16352;SDS011;8286;51.274;9.542;2023-05-10T09:05:29;1.48;;;0.80;;
16352;SDS011;8286;51.274;9.542;2023-05-10T09:07:55;1.98;;;1.00;;
16352;SDS011;8286;51.274;9.542;2023-05-10T09:10:24;0.85;;;0.85;;
16352;SDS011;8286;51.274;9.542;2023-05-10T09:12:52;1.50;;;0.80;;
16352;SDS011;8286;51.274;9.542;2023-05-10T09:15:19;1.00;;;0.80;;
16352;SDS011;8286;51.274;9.542;2023-05-10T09:17:46;1.17;;;0.90;;
16352;SDS011;8286;51.274;9.542;2023-05-10T09:20:13;0.90;;;0.90;;
16352;SDS011;8286;51.274;9.542;2023-05-10T09:22:40;1.38;;;1.17;;
16352;SDS011;8286;51.274;9.542;2023-05-10T09:25:07;1.60;;;1.50;;
16352;SDS011;8286;51.274;9.542;2023-05-10T09:27:37;1.25;;;1.20;;
16352;SDS011;8286;51.274;9.542;2023-05-10T09:30:05;1.35;;;1.15;;
16352;SDS011;8286;51.274;9.542;2023-05-10T09:32:36;2.88;;;0.80;;
16352;SDS011;8286;51.274;9.542;2023-05-10T09:35:09;1.73;;;1.02;;
16352;SDS011;8286;51.274;9.542;2023-05-10T09:37:36;0.90;;;0.90;;
16352;SDS011;8286;51.274;9.542;2023-05-10T09:40:06;1.98;;;0.82;;
16352;SDS011;8286;51.274;9.542;2023-05-10T09:42:33;1.17;;;0.88;;
16352;SDS011;8286;51.274;9.542;2023-05-10T09:45:02;4.60;;;1.58;;
16352;SDS011;8286;51.274;9.542;2023-05-10T09:47:31;1.08;;;0.98;;
16352;SDS011;8286;51.274;9.542;2023-05-10T09:49:58;1.40;;;1.33;;
16352;SDS011;8286;51.274;9.542;2023-05-10T09:52:28;0.90;;;0.90;;
16352;SDS011;8286;51.274;9.542;2023-05-10T09:54:55;3.88;;;1.10;;
16352;SDS011;8286;51.274;9.542;2023-05-10T09:57:22;1.40;;;1.30;;
16352;SDS011;8286;51.274;9.542;2023-05-10T09:59:50;1.27;;;1.17;;
16352;SDS011;8286;51.274;9.542;2023-05-10T10:02:19;1.67;;;1.10;;
16352;SDS011;8286;51.274;9.542;2023-05-10T10:04:48;1.30;;;1.27;;
16352;SDS011;8286;51.274;9.542;2023-05-10T10:07:15;1.50;;;1.40;;
16352;SDS011;8286;51.274;9.542;2023-05-10T10:09:48;1.50;;;1.40;;
16352;SDS011;8286;51.274;9.542;2023-05-10T10:12:15;1.95;;;1.40;;
16352;SDS011;8286;51.274;9.542;2023-05-10T10:14:44;2.88;;;1.92;;
16352;SDS011;8286;51.274;9.542;2023-05-10T10:17:11;1.83;;;1.45;;
16352;SDS011;8286;51.274;9.542;2023-05-10T10:19:39;3.00;;;1.40;;
16352;SDS011;8286;51.274;9.542;2023-05-10T10:22:06;2.15;;;1.40;;
16352;SDS011;8286;51.274;9.542;2023-05-10T10:24:32;2.90;;;1.50;;
16352;SDS011;8286;51.274;9.542;2023-05-10T10:27:00;1.50;;;1.40;;
16352;SDS011;8286;51.274;9.542;2023-05-10T10:29:32;4.60;;;1.33;;
16352;SDS011;8286;51.274;9.542;2023-05-10T10:32:03;3.92;;;1.15;;
16352;SDS011;8286;51.274;9.542;2023-05-10T10:34:35;1.50;;;1.40;;
16352;SDS011;8286;51.274;9.542;2023-05-10T10:37:05;1.50;;;1.40;;
16352;SDS011;8286;51.274;9.542;2023-05-10T10:39:32;1.65;;;1.55;;
16352;SDS011;8286;51.274;9.542;2023-05-10T10:42:01;2.17;;;1.83;;
16352;SDS011;8286;51.274;9.542;2023-05-10T10:44:35;1.45;;;1.35;;
16352;SDS011;8286;51.274;9.542;2023-05-10T10:50:02;1.40;;;1.30;;
16352;SDS011;8286;51.274;9.542;2023-05-10T10:52:31;2.28;;;1.35;;
16352;SDS011;8286;51.274;9.542;2023-05-10T10:54:59;1.23;;;1.13;;
16352;SDS011;8286;51.274;9.542;2023-05-10T10:57:28;1.40;;;1.30;;
16352;SDS011;8286;51.274;9.542;2023-05-10T11:02:44;2.85;;;2.65;;
16352;SDS011;8286;51.274;9.542;2023-05-10T11:05:23;2.42;;;2.25;;
16352;SDS011;8286;51.274;9.542;2023-05-10T11:07:55;1.70;;;1.60;;
16352;SDS011;8286;51.274;9.542;2023-05-10T11:10:23;4.03;;;1.85;;
16352;SDS011;8286;51.274;9.542;2023-05-10T11:12:51;2.17;;;2.03;;
16352;SDS011;8286;51.274;9.542;2023-05-10T11:15:18;2.67;;;2.00;;
16352;SDS011;8286;51.274;9.542;2023-05-10T11:17:45;2.42;;;2.22;;
16352;SDS011;8286;51.274;9.542;2023-05-10T11:20:15;1.95;;;1.85;;
16352;SDS011;8286;51.274;9.542;2023-05-10T11:22:50;2.60;;;2.40;;
16352;SDS011;8286;51.274;9.542;2023-05-10T11:25:19;2.63;;;2.20;;
16352;SDS011;8286;51.274;9.542;2023-05-10T11:27:46;3.63;;;2.33;;
16352;SDS011;8286;51.274;9.542;2023-05-10T11:30:13;4.22;;;2.20;;
16352;SDS011;8286;51.274;9.542;2023-05-10T11:32:40;3.33;;;2.30;;
16352;SDS011;8286;51.274;9.542;2023-05-10T11:35:07;2.03;;;1.85;;
16352;SDS011;8286;51.274;9.542;2023-05-10T11:37:34;2.88;;;2.25;;
16352;SDS011;8286;51.274;9.542;2023-05-10T11:40:00;2.65;;;2.10;;
16352;SDS011;8286;51.274;9.542;2023-05-10T11:42:29;2.45;;;1.85;;
16352;SDS011;8286;51.274;9.542;2023-05-10T11:44:56;2.53;;;2.33;;
16352;SDS011;8286;51.274;9.542;2023-05-10T11:47:22;2.38;;;1.92;;
16352;SDS011;8286;51.274;9.542;2023-05-10T11:49:49;2.13;;;1.98;;
16352;SDS011;8286;51.274;9.542;2023-05-10T11:52:18;3.58;;;2.25;;
16352;SDS011;8286;51.274;9.542;2023-05-10T11:54:45;2.45;;;2.25;;
16352;SDS011;8286;51.274;9.542;2023-05-10T11:57:13;3.00;;;2.20;;
16352;SDS011;8286;51.274;9.542;2023-05-10T11:59:41;2.67;;;2.47;;
16352;SDS011;8286;51.274;9.542;2023-05-10T12:02:07;5.45;;;2.70;;
16352;SDS011;8286;51.274;9.542;2023-05-10T12:04:34;2.58;;;2.20;;
16352;SDS011;8286;51.274;9.542;2023-05-10T12:07:00;2.40;;;2.20;;
16352;SDS011;8286;51.274;9.542;2023-05-10T12:09:27;3.42;;;2.30;;
16352;SDS011;8286;51.274;9.542;2023-05-10T12:11:55;3.00;;;2.63;;
16352;SDS011;8286;51.274;9.542;2023-05-10T12:14:21;3.00;;;2.28;;
16352;SDS011;8286;51.274;9.542;2023-05-10T12:16:50;2.40;;;2.20;;
16352;SDS011;8286;51.274;9.542;2023-05-10T12:19:18;5.47;;;2.33;;
16352;SDS011;8286;51.274;9.542;2023-05-10T12:21:45;3.45;;;2.35;;
16352;SDS011;8286;51.274;9.542;2023-05-10T12:24:12;4.32;;;2.45;;
16352;SDS011;8286;51.274;9.542;2023-05-10T12:26:41;2.50;;;2.30;;
16352;SDS011;8286;51.274;9.542;2023-05-10T12:29:14;3.17;;;2.45;;
16352;SDS011;8286;51.274;9.542;2023-05-10T12:31:53;3.88;;;2.58;;
16352;SDS011;8286;51.274;9.542;2023-05-10T12:34:26;3.67;;;2.20;;
16352;SDS011;8286;51.274;9.542;2023-05-10T12:36:56;2.75;;;2.10;;
16352;SDS011;8286;51.274;9.542;2023-05-10T12:39:23;2.70;;;2.30;;
16352;SDS011;8286;51.274;9.542;2023-05-10T12:41:50;3.70;;;2.70;;
16352;SDS011;8286;51.274;9.542;2023-05-10T12:44:16;7.70;;;3.00;;
16352;SDS011;8286;51.274;9.542;2023-05-10T12:46:43;4.63;;;2.90;;
16352;SDS011;8286;51.274;9.542;2023-05-10T12:49:11;5.43;;;2.60;;
16352;SDS011;8286;51.274;9.542;2023-05-10T12:51:37;5.15;;;2.65;;
16352;SDS011;8286;51.274;9.542;2023-05-10T12:54:04;7.20;;;2.75;;
16352;SDS011;8286;51.274;9.542;2023-05-10T12:56:30;5.10;;;2.65;;
16352;SDS011;8286;51.274;9.542;2023-05-10T12:58:57;3.22;;;2.42;;
16352;SDS011;8286;51.274;9.542;2023-05-10T13:01:23;3.80;;;2.63;;
16352;SDS011;8286;51.274;9.542;2023-05-10T13:03:50;4.45;;;2.42;;
16352;SDS011;8286;51.274;9.542;2023-05-10T13:06:18;3.90;;;2.35;;
16352;SDS011;8286;51.274;9.542;2023-05-10T13:08:44;3.50;;;2.38;;
16352;SDS011;8286;51.274;9.542;2023-05-10T13:11:11;3.42;;;2.35;;
16352;SDS011;8286;51.274;9.542;2023-05-10T13:13:41;3.80;;;2.75;;
16352;SDS011;8286;51.274;9.542;2023-05-10T13:16:07;4.22;;;2.75;;
16352;SDS011;8286;51.274;9.542;2023-05-10T13:18:34;3.30;;;3.00;;
16352;SDS011;8286;51.274;9.542;2023-05-10T13:21:01;3.90;;;2.58;;
16352;SDS011;8286;51.274;9.542;2023-05-10T13:23:30;3.22;;;2.45;;
16352;SDS011;8286;51.274;9.542;2023-05-10T13:25:56;6.20;;;2.72;;
16352;SDS011;8286;51.274;9.542;2023-05-10T13:28:23;6.38;;;2.53;;
16352;SDS011;8286;51.274;9.542;2023-05-10T13:30:51;2.90;;;2.60;;
16352;SDS011;8286;51.274;9.542;2023-05-10T13:33:17;6.43;;;2.58;;
16352;SDS011;8286;51.274;9.542;2023-05-10T13:35:44;4.65;;;3.05;;
16352;SDS011;8286;51.274;9.542;2023-05-10T13:38:10;2.92;;;2.47;;
16352;SDS011;8286;51.274;9.542;2023-05-10T13:40:39;3.92;;;2.40;;
16352;SDS011;8286;51.274;9.542;2023-05-10T13:43:05;5.10;;;2.50;;
16352;SDS011;8286;51.274;9.542;2023-05-10T13:45:32;4.90;;;2.60;;
16352;SDS011;8286;51.274;9.542;2023-05-10T13:47:58;2.72;;;2.53;;
16352;SDS011;8286;51.274;9.542;2023-05-10T13:50:25;3.50;;;2.55;;
16352;SDS011;8286;51.274;9.542;2023-05-10T13:52:52;4.00;;;2.83;;
16352;SDS011;8286;51.274;9.542;2023-05-10T13:55:18;3.80;;;2.70;;
16352;SDS011;8286;51.274;9.542;2023-05-10T13:57:46;5.03;;;2.85;;
16352;SDS011;8286;51.274;9.542;2023-05-10T14:00:13;3.25;;;2.45;;
16352;SDS011;8286;51.274;9.542;2023-05-10T14:02:41;3.10;;;2.40;;
16352;SDS011;8286;51.274;9.542;2023-05-10T14:05:08;2.85;;;2.30;;
16352;SDS011;8286;51.274;9.542;2023-05-10T14:07:34;3.22;;;2.15;;
16352;SDS011;8286;51.274;9.542;2023-05-10T14:10:01;3.15;;;2.15;;
16352;SDS011;8286;51.274;9.542;2023-05-10T14:12:28;2.28;;;2.05;;
16352;SDS011;8286;51.274;9.542;2023-05-10T14:14:56;3.15;;;1.70;;
16352;SDS011;8286;51.274;9.542;2023-05-10T14:17:23;2.20;;;1.50;;
16352;SDS011;8286;51.274;9.542;2023-05-10T14:19:49;1.98;;;1.73;;
16352;SDS011;8286;51.274;9.542;2023-05-10T14:22:16;2.17;;;1.63;;
16352;SDS011;8286;51.274;9.542;2023-05-10T14:24:43;5.22;;;2.00;;
16352;SDS011;8286;51.274;9.542;2023-05-10T14:27:11;2.70;;;2.10;;
16352;SDS011;8286;51.274;9.542;2023-05-10T14:29:38;5.65;;;1.75;;
16352;SDS011;8286;51.274;9.542;2023-05-10T14:32:06;1.92;;;1.75;;
16352;SDS011;8286;51.274;9.542;2023-05-10T14:34:32;2.95;;;1.60;;
16352;SDS011;8286;51.274;9.542;2023-05-10T14:37:00;1.77;;;1.67;;
16352;SDS011;8286;51.274;9.542;2023-05-10T14:39:27;4.60;;;1.85;;
16352;SDS011;8286;51.274;9.542;2023-05-10T14:41:54;2.35;;;1.40;;
16352;SDS011;8286;51.274;9.542;2023-05-10T14:44:21;1.38;;;1.27;;
16352;SDS011;8286;51.274;9.542;2023-05-10T14:46:48;1.88;;;1.20;;
16352;SDS011;8286;51.274;9.542;2023-05-10T14:49:16;1.60;;;1.35;;
16352;SDS011;8286;51.274;9.542;2023-05-10T14:51:43;1.42;;;1.30;;
16352;SDS011;8286;51.274;9.542;2023-05-10T14:54:10;1.83;;;1.73;;
16352;SDS011;8286;51.274;9.542;2023-05-10T14:56:36;4.13;;;1.65;;
16352;SDS011;8286;51.274;9.542;2023-05-10T14:59:03;2.13;;;1.70;;
16352;SDS011;8286;51.274;9.542;2023-05-10T15:01:29;1.77;;;1.67;;
16352;SDS011;8286;51.274;9.542;2023-05-10T15:03:57;3.03;;;2.42;;
16352;SDS011;8286;51.274;9.542;2023-05-10T15:06:30;4.28;;;2.70;;
16352;SDS011;8286;51.274;9.542;2023-05-10T15:08:57;2.38;;;1.85;;
16352;SDS011;8286;51.274;9.542;2023-05-10T15:11:23;3.08;;;1.60;;
16352;SDS011;8286;51.274;9.542;2023-05-10T15:13:50;3.20;;;2.00;;